Time;durP1;ratioP1;P1;durP2;ratioP2;P2;SDS_P1;SDS_P2;PMS_P1;PMS_P2;Temp;Humidity;BMP_temperature;BMP_pressure;BME280_temperature;BME280_humidity;BME280_pressure;Samples;Min_cycle;Max_cycle;Signal;HPM_P1;HPM_P2
2022/08/16 00:00:21;;;;;;;20.33;18.23;;;21.60;99.90;;;;;;5073397;28;20036;-71
2022/08/16 00:02:47;;;;;;;20.20;18.13;;;21.40;99.90;;;;;;5073582;28;20597;-71
2022/08/16 00:05:13;;;;;;;20.98;18.75;;;21.70;99.90;;;;;;5073391;28;20080;-70
2022/08/16 00:07:39;;;;;;;23.65;19.83;;;21.70;99.90;;;;;;5073419;28;20048;-70
2022/08/16 00:10:08;;;;;;;22.70;19.63;;;21.50;99.90;;;;;;5071685;28;20687;-70
2022/08/16 00:12:34;;;;;;;23.58;20.65;;;21.50;99.90;;;;;;5073440;28;20053;-70
2022/08/16 00:15:04;;;;;;;22.25;19.73;;;21.70;99.90;;;;;;5073280;28;20036;-70
2022/08/16 00:17:32;;;;;;;22.85;18.80;;;21.40;99.90;;;;;;5071904;28;20036;-70
2022/08/16 00:19:57;;;;;;;26.45;19.30;;;21.50;99.90;;;;;;5072679;28;20036;-70
2022/08/16 00:22:23;;;;;;;23.60;19.65;;;21.60;99.90;;;;;;5073057;28;20042;-70
2022/08/16 00:24:49;;;;;;;22.83;20.48;;;21.40;99.90;;;;;;5072568;28;20044;-70
2022/08/16 00:27:15;;;;;;;21.90;19.58;;;21.30;99.90;;;;;;5073093;28;20055;-70
2022/08/16 00:29:41;;;;;;;21.75;19.40;;;21.50;99.90;;;;;;5072623;28;20105;-70
2022/08/16 00:32:07;;;;;;;23.85;21.25;;;21.40;99.90;;;;;;5072976;28;20037;-71
2022/08/16 00:34:35;;;;;;;20.08;18.05;;;21.10;99.90;;;;;;5072638;28;20124;-70
2022/08/16 00:37:01;;;;;;;20.77;18.67;;;21.40;99.90;;;;;;5072767;28;20062;-71
2022/08/16 00:39:27;;;;;;;21.65;19.40;;;21.20;99.90;;;;;;5072266;28;20119;-70
2022/08/16 00:41:52;;;;;;;22.17;19.88;;;21.40;99.90;;;;;;5072589;28;20041;-71
2022/08/16 00:44:20;;;;;;;23.90;20.35;;;21.50;99.90;;;;;;5072650;28;20119;-70
2022/08/16 00:47:00;;;;;;;24.00;20.73;;;21.50;99.90;;;;;;5072645;28;20040;-70
2022/08/16 00:49:26;;;;;;;22.63;20.35;;;21.10;99.90;;;;;;5072133;28;20533;-71
2022/08/16 00:51:52;;;;;;;22.45;19.95;;;21.40;99.90;;;;;;5072352;28;20415;-71
2022/08/16 00:54:21;;;;;;;23.33;19.85;;;21.30;99.90;;;;;;5072397;28;20560;-70
2022/08/16 00:56:49;;;;;;;25.92;19.10;;;21.30;99.90;;;;;;5072582;28;20124;-71
2022/08/16 00:59:16;;;;;;;20.77;18.63;;;21.30;99.90;;;;;;5070797;28;20040;-71
2022/08/16 01:01:43;;;;;;;22.00;19.63;;;21.50;99.90;;;;;;5070937;28;20048;-70
2022/08/16 01:04:10;;;;;;;22.45;18.60;;;21.50;99.90;;;;;;5070847;28;20124;-71
2022/08/16 01:06:36;;;;;;;21.00;18.95;;;21.50;99.90;;;;;;5070819;28;20048;-71
2022/08/16 01:09:05;;;;;;;24.45;19.70;;;21.50;99.90;;;;;;5072060;28;20149;-70
2022/08/16 01:11:32;;;;;;;23.65;19.83;;;21.40;99.90;;;;;;5070842;28;20048;-70
2022/08/16 01:14:27;;;;;;;23.17;20.75;;;21.30;99.90;;;;;;5071977;28;20039;-70
2022/08/16 01:16:54;;;;;;;23.48;20.83;;;21.40;99.90;;;;;;5072066;28;20043;-70
2022/08/16 01:19:30;;;;;;;25.75;22.35;;;21.20;99.90;;;;;;5071925;28;20051;-70
2022/08/16 01:22:24;;;;;;;25.58;22.92;;;21.20;99.90;;;;;;5071996;28;20098;-70
2022/08/16 01:24:54;;;;;;;26.55;23.73;;;21.20;99.90;;;;;;5071985;28;20067;-71
2022/08/16 01:27:25;;;;;;;25.63;22.85;;;21.40;99.90;;;;;;5070995;28;20396;-70
2022/08/16 01:30:30;;;;;;;28.85;23.40;;;21.00;99.90;;;;;;5070173;28;20040;-70
2022/08/16 01:32:58;;;;;;;27.15;22.83;;;21.20;99.90;;;;;;5065605;28;20549;-70
2022/08/16 01:35:28;;;;;;;27.80;24.27;;;21.00;99.90;;;;;;5070369;28;20513;-72
2022/08/16 01:37:56;;;;;;;23.65;21.00;;;20.90;99.90;;;;;;5069881;28;20428;-70
2022/08/16 01:40:26;;;;;;;24.00;21.38;;;21.10;99.90;;;;;;5070466;28;20043;-71
2022/08/16 01:42:53;;;;;;;23.15;20.70;;;21.10;99.90;;;;;;5071730;28;20040;-70
2022/08/16 01:45:19;;;;;;;25.30;22.48;;;21.10;99.90;;;;;;5071735;28;20037;-70
2022/08/16 01:47:47;;;;;;;25.50;21.55;;;20.90;99.90;;;;;;5070392;28;20040;-70
2022/08/16 01:50:12;;;;;;;25.70;22.60;;;21.10;99.90;;;;;;5053342;28;20090;-71
2022/08/16 01:52:40;;;;;;;25.55;22.48;;;20.90;99.90;;;;;;5053671;28;20048;-71
2022/08/16 01:55:06;;;;;;;23.42;20.48;;;21.00;99.90;;;;;;5070496;28;20040;-70
2022/08/16 01:57:32;;;;;;;28.20;23.38;;;21.00;99.90;;;;;;5070303;28;20520;-71
2022/08/16 01:59:59;;;;;;;25.08;22.48;;;20.80;99.90;;;;;;5071238;28;20506;-70
2022/08/16 02:02:25;;;;;;;25.10;22.45;;;20.90;99.90;;;;;;5070197;28;20127;-71
2022/08/16 02:04:51;;;;;;;23.92;21.35;;;20.70;99.90;;;;;;5071340;28;20107;-70
2022/08/16 02:07:19;;;;;;;27.02;24.17;;;21.10;99.90;;;;;;5070238;28;20040;-70
2022/08/16 02:09:46;;;;;;;29.67;24.58;;;21.10;99.90;;;;;;5069826;28;20047;-71
2022/08/16 02:12:13;;;;;;;27.83;23.92;;;21.00;99.90;;;;;;5071427;28;20094;-70
2022/08/16 02:15:21;;;;;;;25.48;22.30;;;20.90;99.90;;;;;;5068080;28;20043;-70
2022/08/16 02:17:46;;;;;;;28.98;24.73;;;20.70;99.90;;;;;;5070121;28;20490;-70
2022/08/16 02:20:14;;;;;;;28.70;24.35;;;20.80;99.90;;;;;;5069735;28;20101;-70
2022/08/16 02:22:39;;;;;;;28.80;25.75;;;20.90;99.90;;;;;;5071480;28;20071;-70
2022/08/16 02:25:12;;;;;;;28.23;24.92;;;20.80;99.90;;;;;;5069915;28;20067;-70
2022/08/16 02:27:40;;;;;;;30.80;26.63;;;20.70;99.90;;;;;;5070049;28;20516;-70
2022/08/16 02:30:11;;;;;;;30.15;26.08;;;20.80;99.90;;;;;;5069591;28;20036;-70
2022/08/16 02:32:36;;;;;;;28.92;25.08;;;20.80;99.90;;;;;;5070227;28;20052;-70
2022/08/16 02:35:04;;;;;;;34.55;28.13;;;20.70;99.90;;;;;;5071010;28;20032;-70
2022/08/16 02:37:29;;;;;;;27.98;24.23;;;20.50;99.90;;;;;;5069955;28;20041;-70
2022/08/16 02:39:55;;;;;;;31.52;25.65;;;20.50;99.90;;;;;;5070871;28;20186;-70
2022/08/16 02:42:20;;;;;;;31.33;25.35;;;20.80;99.90;;;;;;5071023;28;20076;-70
2022/08/16 02:44:46;;;;;;;30.33;26.63;;;20.50;99.90;;;;;;5071239;28;20032;-70
2022/08/16 02:47:11;;;;;;;31.10;26.20;;;20.60;99.90;;;;;;5070034;28;20494;-70
2022/08/16 02:49:37;;;;;;;32.95;27.45;;;20.50;99.90;;;;;;5073919;28;20033;-70
2022/08/16 02:52:03;;;;;;;28.92;24.52;;;20.70;99.90;;;;;;5074826;28;20045;-70
2022/08/16 02:54:28;;;;;;;29.98;25.85;;;20.60;99.90;;;;;;5074562;28;20037;-70
2022/08/16 02:56:54;;;;;;;28.45;25.27;;;20.50;99.90;;;;;;5074590;28;20039;-70
2022/08/16 02:59:19;;;;;;;28.10;25.10;;;20.80;99.90;;;;;;5074487;28;20032;-70
2022/08/16 03:01:45;;;;;;;27.48;24.15;;;20.70;99.90;;;;;;5074630;28;20109;-71
2022/08/16 03:04:10;;;;;;;29.25;25.52;;;20.70;99.90;;;;;;5073362;28;20049;-70
2022/08/16 03:06:36;;;;;;;28.88;24.25;;;20.60;99.90;;;;;;5074534;28;20037;-70
2022/08/16 03:09:02;;;;;;;29.73;23.88;;;20.70;99.90;;;;;;5073133;28;20044;-70
2022/08/16 03:11:30;;;;;;;27.73;24.70;;;20.70;99.90;;;;;;5074073;28;20036;-70
2022/08/16 03:13:56;;;;;;;33.78;24.63;;;20.50;99.90;;;;;;5074604;28;20055;-70
2022/08/16 03:16:23;;;;;;;27.70;23.88;;;20.60;99.90;;;;;;5074394;28;20036;-70
2022/08/16 03:18:49;;;;;;;29.48;23.77;;;20.50;99.90;;;;;;5074308;28;20036;-70
2022/08/16 03:21:15;;;;;;;27.95;24.13;;;20.40;99.90;;;;;;5074065;28;20055;-70
2022/08/16 03:23:41;;;;;;;26.10;23.38;;;20.70;99.90;;;;;;5074219;28;20036;-70
2022/08/16 03:26:07;;;;;;;33.88;26.63;;;20.50;99.90;;;;;;5056021;28;20120;-70
2022/08/16 03:28:32;;;;;;;32.50;25.00;;;20.30;99.90;;;;;;5074088;28;20060;-70
2022/08/16 03:30:58;;;;;;;31.42;27.63;;;20.20;99.90;;;;;;5073776;28;20040;-70
2022/08/16 03:33:23;;;;;;;33.72;26.02;;;20.20;99.90;;;;;;5072741;28;20052;-70
2022/08/16 03:35:50;;;;;;;33.58;27.88;;;20.40;99.90;;;;;;5072588;28;20029;-70
2022/08/16 03:38:17;;;;;;;36.17;27.73;;;20.30;99.90;;;;;;5073971;28;20036;-70
2022/08/16 03:40:42;;;;;;;30.98;26.58;;;20.10;99.90;;;;;;5073540;28;20044;-70
2022/08/16 03:43:10;;;;;;;31.17;26.80;;;20.20;99.90;;;;;;5074053;28;20033;-70
2022/08/16 03:45:37;;;;;;;32.17;27.63;;;20.40;99.90;;;;;;5055802;28;20098;-70
2022/08/16 03:48:03;;;;;;;30.63;27.00;;;20.20;99.90;;;;;;5072517;28;20040;-70
2022/08/16 03:50:30;;;;;;;34.47;28.05;;;20.40;99.90;;;;;;5072080;28;20039;-70
2022/08/16 03:52:57;;;;;;;31.67;27.88;;;20.20;99.90;;;;;;5073701;28;20124;-69
2022/08/16 03:55:22;;;;;;;32.20;27.20;;;20.00;99.90;;;;;;5073311;28;20048;-70
2022/08/16 03:57:50;;;;;;;29.80;25.10;;;20.10;99.90;;;;;;5073694;28;20059;-70
2022/08/16 04:00:20;;;;;;;32.42;26.20;;;20.20;99.90;;;;;;5072747;28;20040;-70
2022/08/16 04:02:46;;;;;;;29.95;26.35;;;20.20;99.90;;;;;;5073557;28;20041;-70
2022/08/16 04:05:14;;;;;;;30.45;25.85;;;20.10;99.90;;;;;;5073357;28;20421;-70
2022/08/16 04:07:41;;;;;;;35.33;25.20;;;20.20;99.90;;;;;;5073285;28;20752;-70
2022/08/16 04:10:08;;;;;;;31.75;25.65;;;20.20;99.90;;;;;;5072903;28;20059;-70
2022/08/16 04:12:34;;;;;;;27.58;24.05;;;20.10;99.90;;;;;;5073395;28;20094;-70
2022/08/16 04:15:01;;;;;;;31.25;25.58;;;19.90;99.90;;;;;;5072977;28;20425;-70
2022/08/16 04:17:28;;;;;;;29.92;25.33;;;19.90;99.90;;;;;;5071909;28;20414;-70
2022/08/16 04:19:54;;;;;;;31.92;26.08;;;19.90;99.90;;;;;;5072835;28;20054;-69
2022/08/16 04:22:20;;;;;;;28.83;25.42;;;20.00;99.90;;;;;;5072952;28;20075;-70
2022/08/16 04:24:46;;;;;;;28.30;24.27;;;20.00;99.90;;;;;;5071636;28;20067;-70
2022/08/16 04:27:11;;;;;;;30.83;24.50;;;19.90;99.90;;;;;;5071879;28;20110;-70
2022/08/16 04:29:37;;;;;;;27.77;24.80;;;19.90;99.90;;;;;;5071204;28;20083;-70
2022/08/16 04:32:03;;;;;;;26.38;23.52;;;19.60;99.90;;;;;;5072907;28;20083;-69
2022/08/16 04:34:32;;;;;;;28.00;25.02;;;19.60;99.90;;;;;;5072624;28;20062;-69
2022/08/16 04:36:58;;;;;;;28.45;25.17;;;19.60;99.90;;;;;;5070560;28;20379;-69
2022/08/16 04:39:26;;;;;;;28.65;25.52;;;19.80;99.90;;;;;;5061221;28;20044;-69
2022/08/16 04:41:51;;;;;;;27.35;24.35;;;19.60;99.90;;;;;;5068381;28;20048;-70
2022/08/16 04:44:17;;;;;;;28.25;23.90;;;19.50;99.90;;;;;;5071241;28;20127;-70
2022/08/16 04:46:43;;;;;;;27.08;23.88;;;19.60;99.90;;;;;;5063806;28;20048;-70
2022/08/16 04:49:10;;;;;;;28.13;24.35;;;19.50;99.90;;;;;;5071763;28;20036;-70
2022/08/16 04:51:36;;;;;;;30.50;25.33;;;19.60;99.90;;;;;;5071203;28;20082;-70
2022/08/16 04:54:03;;;;;;;28.00;24.70;;;19.60;99.90;;;;;;5070987;28;20054;-70
2022/08/16 04:56:29;;;;;;;27.95;24.98;;;19.50;99.90;;;;;;5071233;28;20494;-70
2022/08/16 04:58:55;;;;;;;30.35;26.08;;;19.50;99.90;;;;;;5072424;28;20043;-70
2022/08/16 05:01:21;;;;;;;28.73;25.50;;;19.60;99.90;;;;;;5071074;28;20048;-70
2022/08/16 05:03:47;;;;;;;28.98;25.02;;;19.40;99.90;;;;;;5072284;28;20032;-70
2022/08/16 05:06:13;;;;;;;31.95;24.55;;;19.60;99.90;;;;;;5070929;28;20086;-70
2022/08/16 05:08:38;;;;;;;29.48;24.58;;;19.60;99.90;;;;;;5070957;28;20048;-70
2022/08/16 05:11:07;;;;;;;30.63;26.38;;;19.60;99.90;;;;;;5070002;28;20041;-70
2022/08/16 05:13:35;;;;;;;28.52;24.92;;;19.50;99.90;;;;;;5071789;28;20040;-70
2022/08/16 05:16:00;;;;;;;37.92;26.92;;;19.70;99.90;;;;;;5071980;28;20498;-69
2022/08/16 05:18:26;;;;;;;30.38;26.13;;;19.80;99.90;;;;;;5071973;28;20041;-70
2022/08/16 05:20:52;;;;;;;34.08;26.17;;;19.60;99.90;;;;;;5070425;28;20178;-69
2022/08/16 05:23:18;;;;;;;29.05;26.10;;;19.60;99.90;;;;;;5072138;28;20494;-70
2022/08/16 05:25:43;;;;;;;29.55;26.42;;;19.60;99.90;;;;;;5071943;28;20115;-70
2022/08/16 05:28:10;;;;;;;30.17;24.77;;;19.60;99.90;;;;;;5063540;28;20123;-69
2022/08/16 05:30:37;;;;;;;33.03;26.00;;;19.80;99.90;;;;;;5071575;28;20451;-70
2022/08/16 05:33:03;;;;;;;31.33;27.00;;;20.10;99.90;;;;;;5071604;28;20127;-69
2022/08/16 05:35:29;;;;;;;28.17;25.17;;;20.10;99.90;;;;;;5071570;28;20060;-70
2022/08/16 05:37:54;;;;;;;29.33;24.83;;;20.30;99.90;;;;;;5071962;28;20036;-70
2022/08/16 05:40:20;;;;;;;29.42;23.83;;;20.10;99.90;;;;;;5071569;28;20051;-69
2022/08/16 05:42:46;;;;;;;29.85;24.48;;;20.50;99.90;;;;;;5071791;28;20166;-70
2022/08/16 05:45:12;;;;;;;27.77;23.80;;;20.40;99.90;;;;;;5071694;28;20399;-70
2022/08/16 05:47:38;;;;;;;27.77;24.77;;;20.70;99.90;;;;;;5071637;28;20036;-69
2022/08/16 05:50:05;;;;;;;28.40;23.83;;;20.80;99.90;;;;;;5071250;28;20043;-69
2022/08/16 05:52:31;;;;;;;31.77;25.52;;;20.90;99.90;;;;;;5071828;28;20044;-69
2022/08/16 05:54:57;;;;;;;26.25;21.92;;;21.30;99.90;;;;;;5071448;28;20041;-70
2022/08/16 05:57:23;;;;;;;28.95;23.52;;;21.50;99.90;;;;;;5071576;28;20123;-70
2022/08/16 05:59:49;;;;;;;25.17;22.50;;;21.60;99.90;;;;;;5070040;28;20051;-70
2022/08/16 06:02:15;;;;;;;26.95;22.10;;;21.80;99.90;;;;;;5071581;28;20040;-70
2022/08/16 06:04:40;;;;;;;24.95;22.02;;;22.00;99.90;;;;;;5070464;28;20126;-70
2022/08/16 06:07:06;;;;;;;27.08;22.02;;;22.20;99.90;;;;;;5071660;28;20070;-70
2022/08/16 06:09:32;;;;;;;24.63;21.92;;;22.40;99.90;;;;;;5070025;28;20083;-70
2022/08/16 06:12:00;;;;;;;24.65;21.13;;;22.70;99.90;;;;;;5071504;28;20040;-70
2022/08/16 06:14:26;;;;;;;24.67;21.92;;;22.90;99.90;;;;;;5071483;28;20119;-70
2022/08/16 06:16:52;;;;;;;21.88;19.58;;;23.10;99.90;;;;;;5071359;28;20036;-70
2022/08/16 06:19:18;;;;;;;24.02;21.45;;;23.00;99.90;;;;;;5071364;28;20150;-70
2022/08/16 06:21:45;;;;;;;21.77;17.77;;;23.00;99.90;;;;;;5071513;28;20040;-70
2022/08/16 06:24:11;;;;;;;22.50;19.65;;;23.10;99.90;;;;;;5074217;28;20055;-70
2022/08/16 06:26:36;;;;;;;23.67;20.02;;;23.20;99.90;;;;;;5075256;28;20032;-71
2022/08/16 06:29:02;;;;;;;24.63;20.48;;;23.40;99.90;;;;;;5066659;28;20505;-72
2022/08/16 06:31:28;;;;;;;21.30;19.05;;;23.70;99.90;;;;;;5074825;28;20040;-71
2022/08/16 06:33:54;;;;;;;20.65;18.45;;;24.00;99.90;;;;;;5075135;28;20037;-71
2022/08/16 06:36:19;;;;;;;20.23;18.33;;;24.20;99.90;;;;;;5075023;28;20036;-72
2022/08/16 06:38:45;;;;;;;19.02;17.02;;;24.40;99.90;;;;;;5075261;28;20083;-71
2022/08/16 06:41:11;;;;;;;17.67;15.82;;;24.70;99.90;;;;;;5073403;28;20440;-71
2022/08/16 06:43:37;;;;;;;21.80;16.10;;;24.90;99.90;;;;;;5074975;28;20166;-71
2022/08/16 06:46:08;;;;;;;18.02;14.77;;;25.20;99.90;;;;;;5074686;28;20044;-71
2022/08/16 06:48:34;;;;;;;16.80;14.85;;;25.20;99.90;;;;;;5075019;28;20134;-71
2022/08/16 06:51:03;;;;;;;16.58;14.82;;;25.20;99.90;;;;;;5074512;28;20079;-71
2022/08/16 06:53:31;;;;;;;17.92;14.63;;;25.10;99.90;;;;;;5073521;28;20048;-70
2022/08/16 06:55:58;;;;;;;19.48;14.02;;;25.20;99.90;;;;;;5074467;28;20043;-70
2022/08/16 06:58:23;;;;;;;16.15;14.30;;;25.40;99.90;;;;;;5073417;28;20493;-69
2022/08/16 07:00:49;;;;;;;19.67;16.15;;;25.40;99.40;;;;;;5056357;28;20047;-70
2022/08/16 07:03:14;;;;;;;15.25;13.75;;;25.60;98.90;;;;;;5074668;28;20036;-70
2022/08/16 07:05:40;;;;;;;18.30;14.40;;;25.70;98.10;;;;;;5073401;28;20444;-70
2022/08/16 07:08:06;;;;;;;16.38;14.48;;;25.70;97.60;;;;;;5074587;28;20059;-70
2022/08/16 07:10:32;;;;;;;16.23;14.57;;;25.90;97.30;;;;;;5074074;28;20486;-70
2022/08/16 07:12:57;;;;;;;17.08;15.30;;;26.00;97.20;;;;;;5074329;28;20090;-70
2022/08/16 07:15:23;;;;;;;22.52;15.90;;;26.00;96.60;;;;;;5074107;28;20032;-70
2022/08/16 07:17:49;;;;;;;19.67;16.25;;;26.00;96.00;;;;;;5074273;28;20098;-70
2022/08/16 07:20:16;;;;;;;17.38;15.43;;;26.10;95.50;;;;;;5072662;28;20046;-70
2022/08/16 07:22:42;;;;;;;17.10;15.40;;;26.30;95.70;;;;;;5073189;28;20055;-70
2022/08/16 07:25:10;;;;;;;19.35;15.65;;;26.40;95.80;;;;;;5074055;28;20040;-70
2022/08/16 07:27:36;;;;;;;16.60;14.90;;;26.50;95.40;;;;;;5074194;28;20111;-70
2022/08/16 07:30:06;;;;;;;17.05;15.25;;;26.70;94.80;;;;;;5073794;28;20047;-70
2022/08/16 07:32:32;;;;;;;19.25;14.77;;;26.70;93.90;;;;;;5074052;28;20413;-71
2022/08/16 07:34:57;;;;;;;16.83;14.25;;;26.80;93.60;;;;;;5072762;28;20037;-71
2022/08/16 07:37:23;;;;;;;16.95;15.32;;;26.80;93.40;;;;;;5074009;28;20482;-71
2022/08/16 07:39:48;;;;;;;20.50;15.02;;;26.90;93.30;;;;;;5073352;28;20047;-70
2022/08/16 07:42:14;;;;;;;19.27;14.70;;;26.80;92.50;;;;;;5073361;28;20521;-71
2022/08/16 07:44:40;;;;;;;17.27;13.80;;;26.90;92.20;;;;;;5074416;28;20414;-70
2022/08/16 07:47:05;;;;;;;17.40;14.55;;;27.00;92.20;;;;;;5073088;28;20494;-71
2022/08/16 07:49:31;;;;;;;15.85;14.07;;;27.00;91.70;;;;;;5072964;28;20067;-72
2022/08/16 07:51:56;;;;;;;15.25;13.07;;;27.20;91.30;;;;;;5074375;28;20113;-71
2022/08/16 07:54:22;;;;;;;14.63;13.07;;;27.10;90.30;;;;;;5074112;28;20044;-70
2022/08/16 07:56:47;;;;;;;16.17;12.45;;;27.30;90.20;;;;;;5073309;28;20037;-70
2022/08/16 07:59:13;;;;;;;14.52;11.32;;;27.10;89.20;;;;;;5073649;28;20035;-70
2022/08/16 08:01:39;;;;;;;13.57;12.18;;;27.20;88.40;;;;;;5074169;28;20037;-70
2022/08/16 08:04:05;;;;;;;13.70;12.30;;;27.30;87.80;;;;;;5073616;28;20044;-71
2022/08/16 08:06:31;;;;;;;13.43;11.60;;;27.50;87.20;;;;;;5073652;28;20426;-71
2022/08/16 08:08:57;;;;;;;13.77;11.20;;;27.40;85.10;;;;;;5073246;28;20044;-71
2022/08/16 08:11:24;;;;;;;14.40;11.38;;;27.40;84.90;;;;;;5072563;28;20044;-71
2022/08/16 08:13:51;;;;;;;14.15;11.48;;;27.60;84.50;;;;;;5073027;28;20041;-70
2022/08/16 08:16:20;;;;;;;13.32;11.05;;;27.70;83.80;;;;;;5073296;28;20051;-70
2022/08/16 08:18:49;;;;;;;12.77;11.00;;;27.70;83.30;;;;;;5073213;28;20111;-70
2022/08/16 08:21:18;;;;;;;10.95;9.85;;;27.70;83.30;;;;;;5072798;28;20043;-70
2022/08/16 08:23:44;;;;;;;15.48;9.90;;;28.00;83.30;;;;;;5072908;28;20040;-70
2022/08/16 08:26:09;;;;;;;14.35;9.52;;;27.70;80.80;;;;;;5072749;28;20041;-70
2022/08/16 08:28:35;;;;;;;15.55;8.93;;;27.60;79.10;;;;;;5073117;28;20029;-69
2022/08/16 08:31:02;;;;;;;10.50;8.50;;;27.60;80.40;;;;;;5072643;28;20086;-70
2022/08/16 08:33:28;;;;;;;10.23;8.13;;;27.50;79.20;;;;;;5072757;28;20072;-70
2022/08/16 08:36:01;;;;;;;10.80;8.45;;;27.70;79.20;;;;;;5072573;28;20037;-70
2022/08/16 08:38:29;;;;;;;10.40;7.60;;;27.70;78.60;;;;;;5072711;28;20533;-71
2022/08/16 08:40:55;;;;;;;11.32;7.72;;;27.60;78.10;;;;;;5072001;28;20045;-71
2022/08/16 08:43:21;;;;;;;11.50;9.85;;;27.60;79.00;;;;;;5072160;28;20043;-70
2022/08/16 08:45:47;;;;;;;12.88;8.23;;;27.80;77.60;;;;;;5072483;28;20044;-70
2022/08/16 08:48:13;;;;;;;13.27;9.13;;;27.70;76.90;;;;;;5071383;28;20067;-70
2022/08/16 08:50:41;;;;;;;11.40;9.77;;;27.80;78.10;;;;;;5072198;28;20071;-70
2022/08/16 08:53:07;;;;;;;14.57;10.85;;;27.80;77.00;;;;;;5072455;28;20052;-70
2022/08/16 08:55:33;;;;;;;11.80;10.23;;;28.00;76.90;;;;;;5072376;28;20040;-70
2022/08/16 08:57:58;;;;;;;12.27;10.05;;;28.10;76.30;;;;;;5072597;28;20036;-70
2022/08/16 09:00:26;;;;;;;10.50;9.40;;;28.30;76.30;;;;;;5072710;28;20517;-70
2022/08/16 09:02:52;;;;;;;9.88;8.77;;;28.60;76.30;;;;;;5073542;28;20045;-70
2022/08/16 09:05:19;;;;;;;14.88;10.30;;;28.80;76.00;;;;;;5072998;28;20064;-70
2022/08/16 09:07:45;;;;;;;10.32;9.25;;;28.90;74.80;;;;;;5071355;28;20075;-70
2022/08/16 09:10:11;;;;;;;10.80;9.70;;;29.20;74.60;;;;;;5071010;28;20087;-70
2022/08/16 09:12:37;;;;;;;11.88;9.10;;;29.30;73.70;;;;;;5073110;28;20060;-70
2022/08/16 09:15:04;;;;;;;13.05;9.82;;;29.40;73.80;;;;;;5073295;28;20039;-70
2022/08/16 09:17:32;;;;;;;10.77;6.78;;;29.10;71.90;;;;;;5072841;28;20045;-71
2022/08/16 09:19:57;;;;;;;7.80;6.57;;;28.90;69.80;;;;;;5072375;28;20051;-70
2022/08/16 09:22:24;;;;;;;7.95;6.90;;;28.80;70.10;;;;;;5072055;28;20074;-70
2022/08/16 09:24:50;;;;;;;8.95;6.45;;;28.60;69.20;;;;;;5072088;28;20048;-70
2022/08/16 09:27:16;;;;;;;9.00;5.35;;;28.60;69.00;;;;;;5072042;28;20043;-70
2022/08/16 09:29:42;;;;;;;7.50;5.85;;;28.40;68.30;;;;;;5088037;28;20041;-70
2022/08/16 09:32:08;;;;;;;6.78;5.72;;;28.50;69.30;;;;;;5072239;28;20054;-70
2022/08/16 09:34:33;;;;;;;9.52;6.53;;;28.70;70.90;;;;;;5072271;28;20032;-72
2022/08/16 09:36:59;;;;;;;7.35;5.60;;;28.60;69.90;;;;;;5072089;28;20036;-71
2022/08/16 09:39:25;;;;;;;6.47;5.88;;;28.60;69.00;;;;;;5070971;28;20048;-72
2022/08/16 09:41:54;;;;;;;8.63;6.82;;;28.50;68.10;;;;;;5088047;28;20036;-71
2022/08/16 09:44:23;;;;;;;8.05;6.18;;;28.40;67.60;;;;;;5072111;28;20046;-72
2022/08/16 09:46:49;;;;;;;8.20;5.75;;;28.30;67.50;;;;;;5072449;28;20040;-72
2022/08/16 09:49:15;;;;;;;9.43;5.97;;;28.40;68.70;;;;;;5072086;28;20101;-71
2022/08/16 09:51:41;;;;;;;7.43;5.70;;;28.60;69.50;;;;;;5070466;28;20051;-72
2022/08/16 09:54:09;;;;;;;8.80;5.78;;;28.60;68.20;;;;;;5071484;28;20402;-72
2022/08/16 09:56:35;;;;;;;8.48;5.68;;;28.60;68.20;;;;;;5071533;28;20067;-71
2022/08/16 09:59:03;;;;;;;8.98;6.30;;;28.60;67.30;;;;;;5076229;28;20087;-71
2022/08/16 10:01:30;;;;;;;9.25;6.45;;;28.60;66.90;;;;;;5075293;28;20058;-71
2022/08/16 10:03:56;;;;;;;7.65;6.88;;;28.60;67.60;;;;;;5076712;28;20525;-72
2022/08/16 10:06:26;;;;;;;7.13;5.90;;;28.70;68.50;;;;;;5077818;28;20051;-72
2022/08/16 10:08:52;;;;;;;7.97;5.65;;;28.90;67.70;;;;;;5077979;28;20056;-72
2022/08/16 10:14:03;;;;;;;9.07;4.63;;;28.80;64.50;;;;;;5076527;28;20460;-70
2022/08/16 10:16:29;;;;;;;7.78;6.18;;;28.90;64.50;;;;;;5077014;28;20047;-70
2022/08/16 10:18:55;;;;;;;9.18;6.53;;;28.80;64.10;;;;;;5077012;28;20073;-71
2022/08/16 10:21:21;;;;;;;6.20;5.00;;;28.80;64.50;;;;;;5077547;28;20123;-71
2022/08/16 10:23:48;;;;;;;7.63;5.53;;;28.80;65.10;;;;;;5077683;28;20402;-70
2022/08/16 10:26:14;;;;;;;7.35;6.13;;;28.70;64.50;;;;;;5076341;28;20044;-71
2022/08/16 10:28:39;;;;;;;8.43;6.47;;;28.60;64.60;;;;;;5076297;28;20048;-71
2022/08/16 10:31:06;;;;;;;6.38;5.75;;;28.50;64.80;;;;;;5076769;28;20111;-72
2022/08/16 10:33:32;;;;;;;8.85;5.97;;;28.60;65.50;;;;;;5076601;28;20498;-71
2022/08/16 10:35:59;;;;;;;8.45;6.05;;;28.60;65.40;;;;;;5077692;28;20028;-72
2022/08/16 10:38:25;;;;;;;7.03;6.32;;;28.50;65.10;;;;;;5077898;28;20497;-72
2022/08/16 10:40:53;;;;;;;6.95;6.22;;;28.50;65.30;;;;;;5077057;28;20055;-72
2022/08/16 10:43:19;;;;;;;7.40;5.97;;;28.50;65.60;;;;;;5077927;28;20040;-72
2022/08/16 10:45:47;;;;;;;10.27;5.93;;;28.60;65.00;;;;;;5077790;28;20036;-71
2022/08/16 10:48:13;;;;;;;7.43;5.50;;;28.70;64.40;;;;;;5077999;28;20120;-71
2022/08/16 10:50:38;;;;;;;9.57;5.55;;;28.60;62.90;;;;;;5076232;28;20458;-71
2022/08/16 10:53:05;;;;;;;9.13;5.45;;;28.70;63.10;;;;;;5077830;28;20124;-71
2022/08/16 10:55:35;;;;;;;7.97;5.82;;;28.70;62.60;;;;;;5077167;28;20493;-70
2022/08/16 10:58:02;;;;;;;9.63;7.18;;;28.60;62.90;;;;;;5076152;28;20037;-70
2022/08/16 11:00:28;;;;;;;8.77;5.90;;;28.70;63.60;;;;;;5077422;28;20040;-71
2022/08/16 11:02:53;;;;;;;7.45;6.25;;;28.60;63.40;;;;;;5076434;28;20117;-71
2022/08/16 11:05:19;;;;;;;9.40;5.85;;;28.50;62.40;;;;;;5077748;28;20037;-71
2022/08/16 11:07:47;;;;;;;10.65;6.00;;;28.50;62.50;;;;;;5077091;28;20036;-71
2022/08/16 11:10:16;;;;;;;6.57;5.93;;;28.60;63.70;;;;;;5074457;28;20051;-70
2022/08/16 11:12:42;;;;;;;7.03;6.18;;;28.50;63.00;;;;;;5073203;28;20043;-71
2022/08/16 11:15:07;;;;;;;8.75;5.75;;;28.40;62.60;;;;;;5073283;28;20040;-71
2022/08/16 11:17:33;;;;;;;6.88;6.05;;;28.40;63.10;;;;;;5073597;28;20033;-71
2022/08/16 11:19:59;;;;;;;9.25;6.35;;;28.50;64.70;;;;;;5072013;28;20402;-71
2022/08/16 11:22:25;;;;;;;6.97;6.20;;;28.50;64.10;;;;;;5070566;28;20040;-71
2022/08/16 11:24:51;;;;;;;7.93;6.22;;;28.50;63.50;;;;;;5068610;28;20051;-71
2022/08/16 11:27:20;;;;;;;9.20;6.28;;;28.40;62.90;;;;;;5071108;28;20048;-71
2022/08/16 11:29:46;;;;;;;9.20;7.00;;;28.50;63.90;;;;;;5071778;28;20040;-72
2022/08/16 11:32:12;;;;;;;7.95;6.30;;;28.60;64.10;;;;;;5073773;28;20486;-71
2022/08/16 11:34:37;;;;;;;7.60;5.97;;;28.70;65.00;;;;;;5073168;28;20071;-71
2022/08/16 11:37:03;;;;;;;8.80;6.57;;;28.60;63.20;;;;;;5073639;28;20043;-71
2022/08/16 11:39:29;;;;;;;7.13;6.53;;;28.60;63.20;;;;;;5073088;28;20038;-71
2022/08/16 11:41:56;;;;;;;7.05;6.43;;;28.60;63.60;;;;;;5071572;28;20045;-70
2022/08/16 11:44:22;;;;;;;9.60;6.85;;;28.60;63.40;;;;;;5072476;28;20055;-70
2022/08/16 11:46:48;;;;;;;8.73;6.80;;;28.50;63.80;;;;;;5073879;28;20044;-70
2022/08/16 11:49:14;;;;;;;7.05;6.38;;;28.70;65.50;;;;;;5073277;28;20043;-71
2022/08/16 11:51:42;;;;;;;8.65;6.40;;;28.70;64.40;;;;;;5073825;28;20116;-71
2022/08/16 11:54:08;;;;;;;8.07;7.22;;;28.60;63.90;;;;;;5073699;28;20115;-70
2022/08/16 11:56:35;;;;;;;9.40;7.20;;;28.50;64.30;;;;;;5073578;28;20028;-71
2022/08/16 11:59:02;;;;;;;9.40;6.85;;;28.50;64.00;;;;;;5073738;28;20069;-70
2022/08/16 12:01:27;;;;;;;8.40;7.53;;;28.50;64.50;;;;;;5073397;28;20067;-71
2022/08/16 12:03:54;;;;;;;9.10;7.05;;;28.50;63.80;;;;;;5072089;28;20048;-71
2022/08/16 12:06:19;;;;;;;7.25;6.55;;;28.50;64.10;;;;;;5073539;28;20048;-70
2022/08/16 12:08:46;;;;;;;11.32;7.15;;;28.50;65.40;;;;;;5073379;28;20047;-71
2022/08/16 12:11:12;;;;;;;9.35;6.90;;;28.60;64.80;;;;;;5072958;28;20095;-71
2022/08/16 12:13:39;;;;;;;10.50;7.80;;;28.60;64.20;;;;;;5073325;28;20036;-71
2022/08/16 12:16:07;;;;;;;7.85;6.75;;;28.50;64.70;;;;;;5073346;28;20032;-70
2022/08/16 12:18:33;;;;;;;8.77;7.05;;;28.60;65.70;;;;;;5073256;28;20072;-70
2022/08/16 12:20:58;;;;;;;9.15;7.35;;;28.70;64.90;;;;;;5072368;28;20060;-71
2022/08/16 12:23:24;;;;;;;7.35;6.65;;;28.60;63.80;;;;;;5073124;28;20518;-71
2022/08/16 12:25:50;;;;;;;8.15;7.05;;;28.60;64.50;;;;;;5071893;28;20561;-71
2022/08/16 12:28:15;;;;;;;10.18;7.65;;;28.70;65.20;;;;;;5073000;28;20047;-71
2022/08/16 12:30:45;;;;;;;12.40;7.55;;;28.70;66.00;;;;;;5071631;28;20045;-72
2022/08/16 12:33:17;;;;;;;10.38;7.47;;;28.80;66.50;;;;;;5072125;28;20485;-71